createdAt,value
2023-04-18T00:01:03.284Z,98.81
2023-04-18T00:03:36.886Z,99.02
2023-04-18T00:06:10.457Z,99.04
2023-04-18T00:08:42.861Z,98.96
2023-04-18T00:11:26.753Z,98.90
2023-04-18T00:13:59.623Z,98.89
2023-04-18T00:16:34.993Z,98.86
2023-04-18T00:19:10.438Z,98.86
2023-04-18T00:21:48.222Z,98.98
2023-04-18T00:24:20.822Z,99.40
2023-04-18T00:26:53.454Z,99.67
2023-04-18T00:29:26.145Z,99.81
2023-04-18T00:31:58.949Z,99.98
2023-04-18T00:34:32.389Z,99.94
2023-04-18T00:37:08.796Z,100.00
2023-04-18T00:39:41.287Z,99.97
2023-04-18T00:42:25.546Z,99.90
2023-04-18T00:45:02.143Z,99.73
2023-04-18T00:47:37.732Z,99.61
2023-04-18T00:50:30.934Z,99.46
2023-04-18T00:53:10.349Z,99.38
2023-04-18T00:55:44.182Z,99.00
2023-04-18T00:58:19.942Z,99.06
2023-04-18T01:00:54.817Z,98.95
2023-04-18T01:03:34.842Z,98.79
2023-04-18T01:06:08.067Z,98.79
2023-04-18T01:08:41.272Z,98.73
2023-04-18T01:11:16.941Z,98.71
2023-04-18T01:14:02.988Z,98.45
2023-04-18T01:16:40.974Z,98.44
2023-04-18T01:19:13.630Z,98.43
2023-04-18T01:21:49.491Z,98.36
2023-04-18T01:24:24.941Z,98.46
2023-04-18T01:27:17.781Z,98.30
2023-04-18T01:29:50.490Z,98.22
2023-04-18T01:32:24.101Z,98.13
2023-04-18T01:35:09.468Z,97.84
2023-04-18T01:37:45.249Z,97.83
2023-04-18T01:40:39.144Z,97.62
2023-04-18T01:43:12.012Z,97.58
2023-04-18T01:46:04.876Z,97.61
2023-04-18T01:48:49.131Z,97.75
2023-04-18T01:51:21.899Z,97.77
2023-04-18T01:54:04.722Z,97.77
2023-04-18T01:56:39.723Z,97.83
2023-04-18T01:59:17.491Z,98.00
2023-04-18T02:01:55.955Z,97.98
2023-04-18T02:04:30.394Z,98.08
2023-04-18T02:07:06.198Z,98.01
2023-04-18T02:09:39.721Z,98.00
2023-04-18T02:12:18.026Z,98.01
2023-04-18T02:14:55.640Z,98.01
2023-04-18T02:17:32.195Z,98.08
2023-04-18T02:20:11.208Z,98.09
2023-04-18T02:22:50.564Z,98.24
2023-04-18T02:25:29.078Z,98.18
2023-04-18T02:28:13.353Z,98.35
2023-04-18T02:31:06.347Z,98.47
2023-04-18T02:33:42.266Z,98.51
2023-04-18T02:36:18.030Z,98.46
2023-04-18T02:39:00.911Z,98.60
2023-04-18T02:41:37.895Z,98.58
2023-04-18T02:44:21.199Z,98.56
2023-04-18T02:46:57.336Z,98.54
2023-04-18T02:49:29.708Z,98.59
2023-04-18T02:52:12.415Z,98.49
2023-04-18T02:54:55.956Z,98.60
2023-04-18T02:57:42.119Z,98.60
2023-04-18T03:00:34.589Z,98.72
2023-04-18T03:03:27.810Z,98.66
2023-04-18T03:06:21.662Z,98.68
2023-04-18T03:08:58.807Z,98.53
2023-04-18T03:11:41.721Z,98.70
2023-04-18T03:14:35.281Z,98.64
2023-04-18T03:17:28.058Z,98.68
2023-04-18T03:20:24.215Z,98.63
2023-04-18T03:23:17.025Z,98.69
2023-04-18T03:26:13.221Z,98.62
2023-04-18T03:28:49.857Z,98.68
2023-04-18T03:31:43.481Z,98.38
2023-04-18T03:34:27.495Z,98.43
2023-04-18T03:37:00.352Z,98.39
2023-04-18T03:39:36.972Z,98.29
2023-04-18T03:42:12.581Z,98.38
2023-04-18T03:44:46.060Z,98.41
2023-04-18T03:47:29.360Z,98.41
2023-04-18T03:50:03.018Z,98.38
2023-04-18T03:52:39.630Z,98.50
2023-04-18T03:55:16.043Z,98.44
2023-04-18T03:57:48.606Z,98.47
2023-04-18T04:00:28.225Z,98.12
2023-04-18T04:03:07.202Z,98.01
2023-04-18T04:05:42.404Z,98.21
2023-04-18T04:08:35.316Z,98.20
2023-04-18T04:11:11.634Z,98.05
2023-04-18T04:13:55.615Z,98.15
2023-04-18T04:16:38.461Z,98.08
2023-04-18T04:19:15.404Z,97.93
2023-04-18T04:22:10.940Z,97.95
2023-04-18T04:24:43.715Z,97.73
2023-04-18T04:27:20.661Z,97.54
2023-04-18T04:29:56.690Z,97.30
2023-04-18T04:32:33.081Z,97.14
2023-04-18T04:35:10.273Z,97.10
2023-04-18T04:37:54.747Z,96.77
2023-04-18T04:40:48.926Z,96.46
2023-04-18T04:43:21.931Z,96.00
2023-04-18T04:45:57.795Z,95.30
2023-04-18T04:48:32.897Z,95.24
2023-04-18T04:51:15.863Z,94.37
2023-04-18T04:53:51.821Z,93.77
2023-04-18T04:56:44.703Z,93.58
2023-04-18T04:59:19.865Z,93.09
2023-04-18T05:01:52.796Z,92.50
2023-04-18T05:04:38.825Z,91.79
2023-04-18T05:07:20.431Z,90.97
2023-04-18T05:09:53.530Z,90.63
2023-04-18T05:12:28.243Z,89.76
2023-04-18T05:15:03.955Z,89.73
2023-04-18T05:17:40.056Z,89.62
2023-04-18T05:20:13.379Z,89.50
2023-04-18T05:22:48.996Z,89.22
2023-04-18T05:25:34.297Z,89.11
2023-04-18T05:28:08.498Z,88.90
2023-04-18T05:30:52.743Z,88.75
2023-04-18T05:33:28.667Z,88.56
2023-04-18T05:36:03.937Z,88.57
2023-04-18T05:38:39.622Z,88.05
2023-04-18T05:41:15.399Z,87.41
2023-04-18T05:44:01.788Z,87.75
2023-04-18T05:46:57.557Z,86.95
2023-04-18T05:49:33.733Z,86.76
2023-04-18T05:52:26.946Z,86.60
2023-04-18T05:55:20.617Z,86.65
2023-04-18T05:57:55.624Z,86.29
2023-04-18T06:00:39.291Z,85.60
2023-04-18T06:03:22.020Z,84.71
2023-04-18T06:06:06.079Z,84.04
2023-04-18T06:08:43.600Z,83.62
2023-04-18T06:11:26.346Z,82.89
2023-04-18T06:14:01.152Z,81.98
2023-04-18T06:16:37.243Z,81.74
2023-04-18T06:19:12.309Z,81.86
2023-04-18T06:21:47.073Z,81.29
2023-04-18T06:24:24.245Z,80.73
2023-04-18T06:26:59.996Z,80.47
2023-04-18T06:29:33.358Z,79.59
2023-04-18T06:32:16.215Z,79.48
2023-04-18T06:34:49.757Z,77.95
2023-04-18T06:37:32.409Z,77.42
2023-04-18T06:40:08.546Z,77.61
2023-04-18T06:42:41.187Z,76.88
2023-04-18T06:45:24.608Z,75.43
2023-04-18T06:47:58.124Z,74.64
2023-04-18T06:50:31.369Z,73.90
2023-04-18T06:53:03.719Z,73.29
2023-04-18T06:55:41.385Z,72.24
2023-04-18T06:58:16.274Z,70.95
2023-04-18T07:00:59.970Z,71.62
2023-04-18T07:03:32.706Z,71.79
2023-04-18T07:06:11.132Z,72.14
2023-04-18T07:08:43.574Z,71.32
2023-04-18T07:11:18.747Z,71.39
2023-04-18T07:13:54.467Z,70.54
2023-04-18T07:16:28.517Z,70.12
2023-04-18T07:19:04.022Z,69.99
2023-04-18T07:21:40.654Z,67.26
2023-04-18T07:24:14.117Z,67.09
2023-04-18T07:26:47.222Z,67.03
2023-04-18T07:29:20.164Z,66.99
2023-04-18T07:31:53.270Z,65.95
2023-04-18T07:34:27.194Z,66.31
2023-04-18T07:36:59.722Z,66.68
2023-04-18T07:39:36.200Z,65.19
2023-04-18T07:42:10.006Z,64.80
2023-04-18T07:44:45.761Z,63.52
2023-04-18T07:47:22.677Z,62.17
2023-04-18T07:49:55.465Z,62.03
2023-04-18T07:52:30.335Z,63.46
2023-04-18T07:55:02.989Z,61.61
2023-04-18T07:57:35.794Z,62.28
2023-04-18T08:00:11.552Z,61.66
2023-04-18T08:02:48.536Z,61.09
2023-04-18T08:05:24.369Z,60.72
2023-04-18T08:07:57.023Z,60.38
2023-04-18T08:10:30.050Z,60.49
2023-04-18T08:13:02.999Z,61.12
2023-04-18T08:15:47.247Z,60.33
2023-04-18T08:18:23.090Z,60.35
2023-04-18T08:21:05.798Z,60.22
2023-04-18T08:23:42.140Z,59.78
2023-04-18T08:26:21.950Z,59.44
2023-04-18T08:29:06.392Z,57.81
2023-04-18T08:31:41.911Z,59.21
2023-04-18T08:34:28.975Z,58.38
2023-04-18T08:37:07.595Z,56.86
2023-04-18T08:39:40.432Z,56.95
2023-04-18T08:42:23.293Z,57.73
2023-04-18T08:44:59.663Z,56.78
2023-04-18T08:47:52.566Z,57.53
2023-04-18T08:50:27.132Z,58.08
2023-04-18T08:53:01.123Z,57.61
2023-04-18T08:55:34.644Z,56.72
2023-04-18T08:58:08.073Z,56.20
2023-04-18T09:00:43.144Z,56.66
2023-04-18T09:03:17.868Z,54.77
2023-04-18T09:06:13.928Z,54.42
2023-04-18T09:09:04.695Z,54.63
2023-04-18T09:11:38.062Z,51.72
2023-04-18T09:14:24.817Z,50.53
2023-04-18T09:17:00.536Z,50.81
2023-04-18T09:19:50.315Z,49.56
2023-04-18T09:22:23.165Z,47.35
2023-04-18T09:24:59.220Z,48.05
2023-04-18T09:27:37.575Z,46.15
2023-04-18T09:30:29.814Z,45.62
2023-04-18T09:33:09.699Z,46.01
2023-04-18T09:35:43.549Z,46.29
2023-04-18T09:38:18.825Z,45.70
2023-04-18T09:41:10.371Z,45.08
2023-04-18T09:43:43.976Z,43.66
2023-04-18T09:46:21.895Z,43.66
2023-04-18T09:48:54.947Z,42.33
2023-04-18T09:51:28.141Z,40.17
2023-04-18T09:54:02.955Z,39.77
2023-04-18T09:56:38.398Z,40.01
2023-04-18T09:59:12.282Z,38.52
2023-04-18T10:01:48.675Z,38.65
2023-04-18T10:04:21.982Z,40.14
2023-04-18T10:06:58.921Z,38.58
2023-04-18T10:09:37.046Z,38.71
2023-04-18T10:12:12.558Z,38.04
2023-04-18T10:14:48.809Z,39.55
2023-04-18T10:17:23.058Z,39.44
2023-04-18T10:20:10.293Z,40.33
2023-04-18T10:22:42.762Z,41.50
2023-04-18T10:25:15.557Z,40.56
2023-04-18T10:28:01.309Z,40.52
2023-04-18T10:30:52.919Z,39.64
2023-04-18T10:33:33.687Z,38.61
2023-04-18T10:36:15.115Z,38.37
2023-04-18T10:38:51.010Z,40.51
2023-04-18T10:41:28.427Z,40.07
2023-04-18T10:44:23.075Z,39.69
2023-04-18T10:47:23.943Z,40.82
2023-04-18T10:50:06.088Z,39.64
2023-04-18T10:52:41.908Z,38.86
2023-04-18T10:55:19.228Z,39.06
2023-04-18T10:57:56.739Z,39.25
2023-04-18T11:00:32.321Z,40.05
2023-04-18T11:03:05.168Z,39.89
2023-04-18T11:05:38.370Z,40.47
2023-04-18T11:08:26.329Z,41.19
2023-04-18T11:11:04.120Z,42.28
2023-04-18T11:14:01.544Z,42.38
2023-04-18T11:16:54.885Z,42.12
2023-04-18T11:19:50.078Z,42.05
2023-04-18T11:22:22.792Z,41.62
2023-04-18T11:25:02.738Z,41.73
2023-04-18T11:27:38.049Z,41.57
2023-04-18T11:30:16.609Z,41.37
2023-04-18T11:32:49.159Z,41.32
2023-04-18T11:35:24.432Z,41.38
2023-04-18T11:38:08.692Z,41.56
2023-04-18T11:40:53.010Z,42.65
2023-04-18T11:43:26.541Z,41.84
2023-04-18T11:46:02.483Z,42.32
2023-04-18T11:48:43.543Z,41.95
2023-04-18T11:51:38.461Z,42.40
2023-04-18T11:54:42.617Z,41.42
2023-04-18T11:57:26.026Z,40.20
2023-04-18T12:00:00.262Z,40.24
2023-04-18T12:02:44.190Z,41.44
2023-04-18T12:05:28.033Z,42.14
2023-04-18T12:08:23.205Z,40.65
2023-04-18T12:10:56.730Z,40.79
2023-04-18T12:13:34.221Z,40.58
2023-04-18T12:16:15.741Z,40.58
2023-04-18T12:18:49.687Z,39.99
2023-04-18T12:21:22.231Z,40.79
2023-04-18T12:23:55.525Z,39.91
2023-04-18T12:26:30.448Z,39.82
2023-04-18T12:29:03.920Z,39.83
2023-04-18T12:31:58.060Z,38.71
2023-04-18T12:34:30.847Z,38.46
2023-04-18T12:37:05.073Z,37.63
2023-04-18T12:39:57.727Z,38.16
2023-04-18T12:42:33.517Z,38.09
2023-04-18T12:45:07.927Z,37.85
2023-04-18T12:47:53.268Z,36.82
2023-04-18T12:50:45.820Z,35.22
2023-04-18T12:53:20.690Z,36.19
2023-04-18T12:56:13.544Z,36.19
2023-04-18T12:59:15.651Z,36.21
2023-04-18T13:01:48.648Z,36.11
2023-04-18T13:04:21.919Z,36.77
2023-04-18T13:06:57.299Z,35.57
2023-04-18T13:09:30.329Z,35.20
2023-04-18T13:12:03.766Z,33.81
2023-04-18T13:14:56.623Z,33.39
2023-04-18T13:17:29.406Z,33.97
2023-04-18T13:20:06.586Z,33.80
2023-04-18T13:22:39.094Z,33.64
2023-04-18T13:25:12.738Z,33.35
2023-04-18T13:27:58.494Z,34.07
2023-04-18T13:30:41.096Z,34.29
2023-04-18T13:33:26.523Z,33.47
2023-04-18T13:36:20.718Z,34.61
2023-04-18T13:38:53.970Z,34.57
2023-04-18T13:41:27.011Z,35.67
2023-04-18T13:44:02.562Z,35.70
2023-04-18T13:46:40.957Z,34.70
2023-04-18T13:49:16.428Z,34.97
2023-04-18T13:51:50.542Z,35.46
2023-04-18T13:54:46.372Z,36.33
2023-04-18T13:57:39.271Z,35.50
2023-04-18T14:00:14.432Z,35.86
2023-04-18T14:02:57.779Z,36.17
2023-04-18T14:05:34.102Z,36.08
2023-04-18T14:08:07.338Z,36.65
2023-04-18T14:10:40.152Z,37.59
2023-04-18T14:13:12.925Z,37.69
2023-04-18T14:15:55.433Z,37.10
2023-04-18T14:18:30.878Z,37.08
2023-04-18T14:21:03.616Z,36.39
2023-04-18T14:23:36.419Z,36.50
2023-04-18T14:26:11.058Z,37.35
2023-04-18T14:28:43.716Z,36.83
2023-04-18T14:31:17.192Z,36.27
2023-04-18T14:33:49.567Z,36.14
2023-04-18T14:36:24.834Z,36.74
2023-04-18T14:38:57.882Z,36.14
2023-04-18T14:41:31.056Z,37.44
2023-04-18T14:44:04.388Z,37.10
2023-04-18T14:46:37.283Z,37.01
2023-04-18T14:49:13.496Z,35.57
2023-04-18T14:51:50.924Z,37.04
2023-04-18T14:54:26.635Z,36.82
2023-04-18T14:56:59.066Z,37.19
2023-04-18T14:59:31.858Z,37.65
2023-04-18T15:02:05.121Z,36.53
2023-04-18T15:04:38.068Z,36.55
2023-04-18T15:07:11.028Z,37.42
2023-04-18T15:09:46.011Z,38.00
2023-04-18T15:12:23.386Z,38.65
2023-04-18T15:14:56.611Z,39.60
2023-04-18T15:17:29.509Z,39.11
2023-04-18T15:20:02.679Z,39.33
2023-04-18T15:22:35.825Z,38.32
2023-04-18T15:25:16.341Z,38.50
2023-04-18T15:27:49.205Z,39.41
2023-04-18T15:30:22.179Z,38.75
2023-04-18T15:32:55.749Z,38.09
2023-04-18T15:35:32.683Z,38.18
2023-04-18T15:38:05.214Z,38.64
2023-04-18T15:40:37.963Z,39.52
2023-04-18T15:43:11.105Z,39.96
2023-04-18T15:45:47.059Z,39.68
2023-04-18T15:48:22.255Z,39.34
2023-04-18T15:50:57.621Z,39.94
2023-04-18T15:53:33.260Z,40.02
2023-04-18T15:56:11.380Z,40.42
2023-04-18T15:58:44.635Z,41.24
2023-04-18T16:01:24.636Z,41.73
2023-04-18T16:04:00.531Z,41.94
2023-04-18T16:06:33.854Z,42.86
2023-04-18T16:09:09.983Z,42.36
2023-04-18T16:11:53.860Z,43.11
2023-04-18T16:14:28.819Z,43.87
2023-04-18T16:17:03.323Z,43.37
2023-04-18T16:19:58.806Z,43.70
2023-04-18T16:22:42.439Z,44.49
2023-04-18T16:25:17.330Z,44.74
2023-04-18T16:27:49.624Z,45.18
2023-04-18T16:30:22.513Z,44.85
2023-04-18T16:32:56.137Z,45.61
2023-04-18T16:35:49.888Z,45.77
2023-04-18T16:38:32.693Z,45.92
2023-04-18T16:41:08.863Z,45.81
2023-04-18T16:43:45.929Z,46.43
2023-04-18T16:46:23.614Z,46.70
2023-04-18T16:49:01.563Z,47.20
2023-04-18T16:51:38.701Z,47.60
2023-04-18T16:54:17.268Z,48.13
2023-04-18T16:56:50.016Z,48.41
2023-04-18T16:59:33.657Z,48.59
2023-04-18T17:02:09.940Z,49.13
2023-04-18T17:04:42.824Z,49.45
2023-04-18T17:07:18.505Z,49.91
2023-04-18T17:09:53.280Z,50.27
2023-04-18T17:12:29.080Z,50.39
2023-04-18T17:15:12.219Z,50.85
2023-04-18T17:17:45.019Z,51.15
2023-04-18T17:20:18.950Z,51.53
2023-04-18T17:22:51.942Z,51.81
2023-04-18T17:25:28.102Z,52.23
2023-04-18T17:28:02.314Z,52.35
2023-04-18T17:30:35.049Z,52.78
2023-04-18T17:33:07.822Z,53.12
2023-04-18T17:35:45.471Z,53.63
2023-04-18T17:38:19.640Z,54.24
2023-04-18T17:41:02.704Z,54.41
2023-04-18T17:43:35.810Z,54.66
2023-04-18T17:46:10.605Z,54.71
2023-04-18T17:48:43.098Z,54.81
2023-04-18T17:51:19.362Z,55.11
2023-04-18T17:53:52.298Z,55.36
2023-04-18T17:56:24.774Z,55.42
2023-04-18T17:59:02.224Z,55.56
2023-04-18T18:01:34.864Z,55.87
2023-04-18T18:04:08.282Z,56.32
2023-04-18T18:06:42.317Z,56.33
2023-04-18T18:09:15.135Z,56.74
2023-04-18T18:11:47.898Z,56.86
2023-04-18T18:14:21.451Z,57.25
2023-04-18T18:16:57.064Z,57.16
2023-04-18T18:19:29.750Z,57.37
2023-04-18T18:22:04.324Z,57.53
2023-04-18T18:24:37.576Z,57.82
2023-04-18T18:27:11.018Z,57.98
2023-04-18T18:29:44.106Z,57.97
2023-04-18T18:32:20.541Z,58.55
2023-04-18T18:34:53.175Z,58.88
2023-04-18T18:37:28.594Z,59.94
2023-04-18T18:40:12.359Z,60.38
2023-04-18T18:42:51.472Z,61.02
2023-04-18T18:45:24.416Z,61.16
2023-04-18T18:47:58.235Z,61.70
2023-04-18T18:50:33.631Z,62.80
2023-04-18T18:53:07.142Z,63.26
2023-04-18T18:55:51.358Z,63.16
2023-04-18T18:58:26.282Z,63.98
2023-04-18T19:01:08.405Z,64.52
2023-04-18T19:03:51.602Z,64.98
2023-04-18T19:06:27.669Z,64.68
2023-04-18T19:09:00.301Z,65.14
2023-04-18T19:11:35.654Z,65.74
2023-04-18T19:14:09.491Z,66.28
2023-04-18T19:17:02.098Z,66.57
2023-04-18T19:19:38.655Z,66.61
2023-04-18T19:22:23.212Z,67.03
2023-04-18T19:24:55.769Z,66.84
2023-04-18T19:27:28.419Z,67.09
2023-04-18T19:30:01.262Z,67.16
2023-04-18T19:32:34.158Z,67.19
2023-04-18T19:35:11.879Z,66.88
2023-04-18T19:37:44.464Z,67.23
2023-04-18T19:40:19.906Z,67.05
2023-04-18T19:42:55.603Z,67.00
2023-04-18T19:45:28.795Z,67.04
2023-04-18T19:48:01.878Z,67.38
2023-04-18T19:50:34.934Z,67.49
2023-04-18T19:53:07.567Z,67.78
2023-04-18T19:55:45.517Z,68.10
2023-04-18T19:58:45.014Z,68.05
2023-04-18T20:01:18.890Z,68.04
2023-04-18T20:03:58.841Z,68.56
2023-04-18T20:06:34.462Z,68.33
2023-04-18T20:09:27.170Z,68.50
2023-04-18T20:12:02.782Z,68.49
2023-04-18T20:14:35.847Z,68.78
2023-04-18T20:17:08.428Z,68.90
2023-04-18T20:19:52.172Z,68.84
2023-04-18T20:22:34.840Z,69.24
2023-04-18T20:25:08.103Z,69.37
2023-04-18T20:27:40.880Z,69.31
2023-04-18T20:30:14.222Z,69.76
2023-04-18T20:32:46.667Z,69.76
2023-04-18T20:35:20.195Z,70.38
2023-04-18T20:38:03.691Z,70.16
2023-04-18T20:40:38.895Z,70.42
2023-04-18T20:43:11.301Z,70.31
2023-04-18T20:45:43.784Z,70.63
2023-04-18T20:48:16.460Z,70.53
2023-04-18T20:50:52.140Z,70.94
2023-04-18T20:53:29.094Z,71.23
2023-04-18T20:56:04.109Z,71.34
2023-04-18T20:58:39.684Z,71.34
2023-04-18T21:01:12.026Z,71.21
2023-04-18T21:03:52.727Z,71.54
2023-04-18T21:06:25.490Z,71.80
2023-04-18T21:08:58.183Z,71.68
2023-04-18T21:11:30.604Z,71.86
2023-04-18T21:14:03.839Z,72.09
2023-04-18T21:16:40.151Z,72.06
2023-04-18T21:19:13.335Z,72.20
2023-04-18T21:21:46.159Z,72.16
2023-04-18T21:24:22.005Z,72.15
2023-04-18T21:26:57.878Z,72.05
2023-04-18T21:29:32.825Z,72.12
2023-04-18T21:32:06.333Z,72.24
2023-04-18T21:34:41.395Z,72.52
2023-04-18T21:37:13.815Z,72.65
2023-04-18T21:39:46.566Z,72.71
2023-04-18T21:42:22.163Z,72.69
2023-04-18T21:44:57.296Z,73.00
2023-04-18T21:47:29.981Z,73.36
2023-04-18T21:50:02.712Z,73.10
2023-04-18T21:52:35.425Z,73.27
2023-04-18T21:55:11.431Z,73.24
2023-04-18T21:57:44.317Z,73.51
2023-04-18T22:00:20.576Z,73.74
2023-04-18T22:02:56.481Z,73.72
2023-04-18T22:05:49.908Z,73.78
2023-04-18T22:08:23.059Z,73.82
2023-04-18T22:11:16.920Z,74.06
2023-04-18T22:13:50.470Z,74.53
2023-04-18T22:16:26.021Z,74.13
2023-04-18T22:18:58.617Z,74.10
2023-04-18T22:21:31.473Z,74.64
2023-04-18T22:24:13.606Z,74.68
2023-04-18T22:26:49.496Z,74.50
2023-04-18T22:29:22.396Z,74.64
2023-04-18T22:31:58.762Z,74.54
2023-04-18T22:34:33.661Z,74.41
2023-04-18T22:37:06.581Z,74.37
2023-04-18T22:39:49.055Z,74.46
2023-04-18T22:42:23.095Z,74.50
2023-04-18T22:44:57.912Z,74.52
2023-04-18T22:47:38.310Z,74.54
2023-04-18T22:50:13.288Z,74.45
2023-04-18T22:52:57.492Z,74.58
2023-04-18T22:55:30.232Z,74.48
2023-04-18T22:58:02.703Z,74.54
2023-04-18T23:00:35.829Z,74.66
2023-04-18T23:03:13.276Z,74.54
2023-04-18T23:05:46.073Z,74.53
2023-04-18T23:08:22.740Z,74.59
2023-04-18T23:10:55.740Z,74.64
2023-04-18T23:13:28.295Z,74.92
2023-04-18T23:16:12.485Z,74.81
2023-04-18T23:19:06.093Z,75.01
2023-04-18T23:21:49.949Z,75.04
2023-04-18T23:24:22.636Z,75.30
2023-04-18T23:26:58.694Z,75.24
2023-04-18T23:29:31.273Z,75.17
2023-04-18T23:32:15.198Z,75.37
2023-04-18T23:34:50.196Z,75.49
2023-04-18T23:37:25.835Z,75.53
2023-04-18T23:39:58.538Z,75.55
2023-04-18T23:42:35.859Z,75.58
2023-04-18T23:45:09.611Z,75.68
2023-04-18T23:47:42.622Z,76.05
2023-04-18T23:50:16.043Z,76.13
2023-04-18T23:52:52.677Z,76.02
2023-04-18T23:55:25.352Z,75.92
2023-04-18T23:58:01.387Z,75.99
